Parkland, Florida
Current Conditions -  °F | °C
As of 11:35 PM on Saturday 22 Nov 2014 (Local Time) from KPMP Reporting Station
Scattered Clouds Scattered Clouds  
Wind Chill: 78°   Ceiling: Unl
Heat Index: 80°   Visibility: 9mi
Dew Point: 71°   Wind: 25mph
Humidity: 79%   Direction: 120°ESE
Pressure: 30.07"   Gusts: 35mph
Location:  26.2997°N, 80.1785°W
Report Text: KPMP 230435Z 12022G30KT 9SM SCT018 SCT028 26/22 A3007 RMK AO2 PK WND 13030/0435 T02560217
Loading
Personal Weather Stations






























Interactive Weather Map New forecast layout! Learn more

10-Day Weather Forecast

Advertisements
Track Severe Weather on mobile